Time;durP1;ratioP1;P1;durP2;ratioP2;P2;SDS_P1;SDS_P2;PMS_P1;PMS_P2;Temp;Humidity;BMP_temperature;BMP_pressure;BME280_temperature;BME280_humidity;BME280_pressure;Samples;Min_cycle;Max_cycle;Signal;HPM_P1;HPM_P2
2022/07/28 00:00:06;;;;;;;;;;;;;;;16.63;50.36;101401.78;5004516;28;19968;-81
2022/07/28 00:02:31;;;;;;;;;;;;;;;16.57;50.25;101397.63;4998216;28;19926;-80
2022/07/28 00:04:57;;;;;;;;;;;;;;;16.60;50.18;101404.53;4997900;28;20020;-81
2022/07/28 00:07:22;;;;;;;;;;;;;;;16.53;50.75;101401.25;4987824;28;19922;-80
2022/07/28 00:09:47;;;;;;;;;;;;;;;16.66;50.12;101399.91;4986226;28;20009;-80
2022/07/28 00:12:13;;;;;;;;;;;;;;;16.62;50.17;101400.94;5003990;28;20394;-80
2022/07/28 00:14:38;;;;;;;;;;;;;;;16.66;50.27;101401.69;4996366;28;20436;-81
2022/07/28 00:17:03;;;;;;;;;;;;;;;16.61;50.63;101395.75;4992028;28;19968;-80
2022/07/28 00:19:29;;;;;;;;;;;;;;;16.62;51.17;101394.81;5002091;28;19926;-80
2022/07/28 00:21:54;;;;;;;;;;;;;;;16.64;50.15;101393.84;5003919;28;19913;-80
2022/07/28 00:24:20;;;;;;;;;;;;;;;16.62;50.92;101390.44;5003423;28;20350;-80
2022/07/28 00:26:45;;;;;;;;;;;;;;;16.62;50.42;101384.34;5003075;28;19937;-80
2022/07/28 00:29:10;;;;;;;;;;;;;;;16.70;50.87;101387.59;4991242;28;19983;-80
2022/07/28 00:31:35;;;;;;;;;;;;;;;16.66;50.58;101393.81;5006623;28;19917;-81
2022/07/28 00:34:01;;;;;;;;;;;;;;;16.60;49.84;101388.78;5008726;28;19924;-81
2022/07/28 00:36:26;;;;;;;;;;;;;;;16.57;50.68;101387.13;5007938;28;19933;-81
2022/07/28 00:38:51;;;;;;;;;;;;;;;16.61;50.18;101387.88;4991886;28;19951;-81
2022/07/28 00:41:19;;;;;;;;;;;;;;;16.59;50.99;101390.53;4976750;28;19922;-81
2022/07/28 00:43:46;;;;;;;;;;;;;;;16.59;50.75;101387.06;5004902;28;19926;-80
2022/07/28 00:46:12;;;;;;;;;;;;;;;16.65;50.84;101385.09;5008322;28;19921;-80
2022/07/28 00:48:38;;;;;;;;;;;;;;;16.58;50.62;101383.59;5006122;28;20249;-81
2022/07/28 00:51:03;;;;;;;;;;;;;;;16.59;50.47;101377.44;4990076;28;19968;-80
2022/07/28 00:53:28;;;;;;;;;;;;;;;16.55;51.44;101373.19;4995160;28;19979;-80
2022/07/28 00:55:54;;;;;;;;;;;;;;;16.63;50.80;101376.41;4984731;28;19922;-81
2022/07/28 00:58:19;;;;;;;;;;;;;;;16.57;50.90;101373.16;5002566;28;19921;-80
2022/07/28 01:00:45;;;;;;;;;;;;;;;16.59;50.14;101379.19;5009664;28;20019;-80
2022/07/28 01:03:10;;;;;;;;;;;;;;;16.50;50.45;101369.91;5001564;28;20020;-80
2022/07/28 01:05:54;;;;;;;;;;;;;;;16.51;49.63;101366.38;4983036;28;19922;-81
2022/07/28 01:08:28;;;;;;;;;;;;;;;16.51;50.10;101375.09;4989964;28;19972;-80
2022/07/28 01:10:56;;;;;;;;;;;;;;;16.39;50.82;101375.53;4998206;28;19922;-80
2022/07/28 01:13:28;;;;;;;;;;;;;;;16.45;51.08;101382.31;4989895;28;19925;-80
2022/07/28 01:16:04;;;;;;;;;;;;;;;16.39;51.30;101379.91;4984673;28;19924;-80
2022/07/28 01:18:37;;;;;;;;;;;;;;;16.37;51.04;101379.94;4986422;28;19925;-80
2022/07/28 01:21:04;;;;;;;;;;;;;;;16.34;51.20;101387.94;4988501;28;19992;-81
2022/07/28 01:23:32;;;;;;;;;;;;;;;16.28;51.32;101379.44;5002349;28;19933;-80
2022/07/28 01:26:16;;;;;;;;;;;;;;;16.21;51.78;101383.19;5003025;28;19965;-80
2022/07/28 01:28:53;;;;;;;;;;;;;;;16.29;52.28;101378.50;4987070;28;20032;-80
2022/07/28 01:31:22;;;;;;;;;;;;;;;16.20;52.65;101378.84;5007824;28;20388;-80
2022/07/28 01:33:50;;;;;;;;;;;;;;;16.31;52.10;101374.94;4998159;28;19914;-80
2022/07/28 01:36:17;;;;;;;;;;;;;;;16.33;51.77;101362.63;4987500;28;19929;-80
2022/07/28 01:38:44;;;;;;;;;;;;;;;16.30;52.46;101361.88;4992093;28;19921;-80
2022/07/28 01:41:13;;;;;;;;;;;;;;;16.28;51.76;101354.09;4986717;28;19925;-80
2022/07/28 01:43:40;;;;;;;;;;;;;;;16.21;51.79;101364.81;5004747;28;19968;-80
2022/07/28 01:46:07;;;;;;;;;;;;;;;16.20;52.02;101366.59;4989784;28;19924;-80
2022/07/28 01:48:33;;;;;;;;;;;;;;;16.17;52.00;101368.44;5005270;28;19925;-80
2022/07/28 01:51:00;;;;;;;;;;;;;;;16.21;52.46;101373.56;4984814;28;19921;-80
2022/07/28 01:53:27;;;;;;;;;;;;;;;16.16;52.16;101364.13;5003270;28;19971;-80
2022/07/28 01:55:53;;;;;;;;;;;;;;;16.03;52.04;101366.31;4997841;28;19971;-80
2022/07/28 01:58:20;;;;;;;;;;;;;;;16.02;52.23;101372.44;5004169;28;21082;-80
2022/07/28 02:00:48;;;;;;;;;;;;;;;16.05;52.42;101366.25;5004590;28;19925;-80
2022/07/28 02:03:14;;;;;;;;;;;;;;;15.96;52.71;101363.03;5001310;28;19921;-80
2022/07/28 02:05:41;;;;;;;;;;;;;;;16.04;52.87;101354.06;5006705;28;19960;-81
2022/07/28 02:08:07;;;;;;;;;;;;;;;15.97;52.34;101350.81;5006523;28;19953;-81
2022/07/28 02:10:33;;;;;;;;;;;;;;;15.90;52.23;101347.53;5003599;28;20515;-80
2022/07/28 02:12:59;;;;;;;;;;;;;;;15.94;52.15;101346.53;5004282;28;20398;-80
2022/07/28 02:15:25;;;;;;;;;;;;;;;15.89;52.68;101355.44;5002724;28;19975;-80
2022/07/28 02:17:51;;;;;;;;;;;;;;;15.98;52.63;101342.03;5003347;28;20008;-81
2022/07/28 02:20:16;;;;;;;;;;;;;;;15.93;52.36;101346.56;4986801;28;19930;-80
2022/07/28 02:22:43;;;;;;;;;;;;;;;15.83;52.76;101346.03;5001058;28;19922;-81
2022/07/28 02:25:09;;;;;;;;;;;;;;;15.75;53.10;101341.97;5004169;28;20066;-80
2022/07/28 02:27:38;;;;;;;;;;;;;;;15.86;52.92;101338.06;5003774;28;19921;-80
2022/07/28 02:30:11;;;;;;;;;;;;;;;15.83;52.75;101334.69;5003233;28;19942;-80
2022/07/28 02:32:40;;;;;;;;;;;;;;;15.66;53.36;101334.38;4969932;28;19922;-80
2022/07/28 02:35:14;;;;;;;;;;;;;;;15.78;53.04;101337.44;5000645;28;20060;-81
2022/07/28 02:37:44;;;;;;;;;;;;;;;15.71;53.34;101335.94;5001508;28;19953;-80
2022/07/28 02:40:12;;;;;;;;;;;;;;;15.82;53.30;101325.97;5001950;28;19922;-81
2022/07/28 02:42:39;;;;;;;;;;;;;;;15.82;53.10;101331.22;4988565;28;20006;-81
2022/07/28 02:45:05;;;;;;;;;;;;;;;15.81;53.19;101329.50;4998908;28;20012;-80
2022/07/28 02:47:34;;;;;;;;;;;;;;;15.78;53.46;101333.97;5004877;28;19945;-80
2022/07/28 02:50:01;;;;;;;;;;;;;;;15.82;53.26;101333.84;4981495;28;19922;-80
2022/07/28 02:52:27;;;;;;;;;;;;;;;15.84;53.31;101332.00;5003807;28;19924;-80
2022/07/28 02:54:53;;;;;;;;;;;;;;;15.77;53.37;101330.53;4987952;28;19918;-80
2022/07/28 02:57:20;;;;;;;;;;;;;;;15.70;53.29;101326.34;5001659;28;19922;-80
2022/07/28 02:59:46;;;;;;;;;;;;;;;15.69;53.25;101327.25;5003012;28;19961;-80
2022/07/28 03:02:12;;;;;;;;;;;;;;;15.72;52.81;101319.28;4966358;28;19960;-80
2022/07/28 03:07:26;;;;;;;;;;;;;;;15.68;52.85;101333.41;5003251;28;20413;-80
2022/07/28 03:09:51;;;;;;;;;;;;;;;15.73;52.79;101333.25;5004021;28;19913;-80
2022/07/28 03:12:17;;;;;;;;;;;;;;;15.79;53.09;101331.31;4982223;28;19929;-80
2022/07/28 03:14:43;;;;;;;;;;;;;;;15.75;52.94;101326.25;5005412;28;20355;-80
2022/07/28 03:17:08;;;;;;;;;;;;;;;15.70;53.43;101326.34;5003897;28;19921;-80
2022/07/28 03:19:33;;;;;;;;;;;;;;;15.72;52.80;101335.00;4998037;28;19921;-80
2022/07/28 03:21:59;;;;;;;;;;;;;;;15.65;53.20;101330.91;4988408;28;19914;-80
2022/07/28 03:24:26;;;;;;;;;;;;;;;15.60;54.04;101330.16;5000894;28;19936;-80
2022/07/28 03:26:58;;;;;;;;;;;;;;;15.57;53.60;101332.88;5003515;28;19933;-80
2022/07/28 03:29:26;;;;;;;;;;;;;;;15.56;53.15;101332.94;5000450;28;19922;-80
2022/07/28 03:31:53;;;;;;;;;;;;;;;15.57;53.54;101332.06;5001503;28;19937;-80
2022/07/28 03:34:18;;;;;;;;;;;;;;;15.59;53.44;101331.09;5004505;28;19957;-80
2022/07/28 03:36:46;;;;;;;;;;;;;;;15.61;53.14;101334.50;5002404;28;20034;-80
2022/07/28 03:39:14;;;;;;;;;;;;;;;15.63;53.12;101331.84;5001970;28;19921;-80
2022/07/28 03:41:41;;;;;;;;;;;;;;;15.54;53.54;101332.16;5002871;28;19922;-81
2022/07/28 03:44:08;;;;;;;;;;;;;;;15.66;53.08;101331.75;5001806;28;20044;-80
2022/07/28 03:46:34;;;;;;;;;;;;;;;15.65;53.23;101330.91;5003172;28;19918;-80
2022/07/28 03:49:00;;;;;;;;;;;;;;;15.60;53.36;101327.53;5002838;28;20059;-80
2022/07/28 03:51:27;;;;;;;;;;;;;;;15.67;53.09;101329.06;4989597;28;19979;-80
2022/07/28 03:53:52;;;;;;;;;;;;;;;15.67;52.78;101329.06;4988010;28;19930;-81
2022/07/28 03:56:18;;;;;;;;;;;;;;;15.68;52.67;101330.78;5002424;28;19922;-80
2022/07/28 03:58:43;;;;;;;;;;;;;;;15.68;52.97;101327.31;5003373;28;20407;-80
2022/07/28 04:01:09;;;;;;;;;;;;;;;15.64;53.15;101326.56;5009078;28;20576;-80
2022/07/28 04:03:34;;;;;;;;;;;;;;;15.55;52.89;101321.63;4992984;28;19925;-80
2022/07/28 04:05:59;;;;;;;;;;;;;;;15.61;52.46;101320.56;4994776;28;19921;-80
2022/07/28 04:08:25;;;;;;;;;;;;;;;15.58;52.80;101316.28;5007462;28;19936;-80
2022/07/28 04:10:50;;;;;;;;;;;;;;;15.66;52.38;101314.25;4989991;28;19929;-80
2022/07/28 04:13:15;;;;;;;;;;;;;;;15.57;52.55;101314.56;5002979;28;19922;-80
2022/07/28 04:15:41;;;;;;;;;;;;;;;15.47;53.01;101307.06;5005169;28;19961;-80
2022/07/28 04:18:06;;;;;;;;;;;;;;;15.57;52.30;101311.09;4987203;28;20012;-80
2022/07/28 04:20:32;;;;;;;;;;;;;;;15.56;52.70;101307.63;5008143;28;19921;-80
2022/07/28 04:22:57;;;;;;;;;;;;;;;15.52;52.94;101307.75;5004919;28;19922;-80
2022/07/28 04:25:24;;;;;;;;;;;;;;;15.58;52.62;101312.78;5003221;28;19932;-80
2022/07/28 04:27:50;;;;;;;;;;;;;;;15.57;53.05;101317.16;5006281;28;20455;-80
2022/07/28 04:30:16;;;;;;;;;;;;;;;15.53;53.19;101315.59;5008944;28;20052;-80
2022/07/28 04:32:42;;;;;;;;;;;;;;;15.42;53.49;101308.06;4993940;28;20513;-80
2022/07/28 04:35:08;;;;;;;;;;;;;;;15.42;53.69;101307.22;4991304;28;19921;-80
2022/07/28 04:37:33;;;;;;;;;;;;;;;15.34;54.14;101304.84;5008020;28;20293;-80
2022/07/28 04:39:59;;;;;;;;;;;;;;;15.40;53.29;101312.50;4988067;28;19929;-80
2022/07/28 04:42:24;;;;;;;;;;;;;;;15.36;53.58;101316.09;4969618;28;19983;-80
2022/07/28 04:44:50;;;;;;;;;;;;;;;15.48;54.08;101320.13;5005066;28;19925;-80
2022/07/28 04:47:15;;;;;;;;;;;;;;;15.52;53.88;101316.47;5003552;28;20295;-81
2022/07/28 04:49:41;;;;;;;;;;;;;;;15.39;54.06;101321.25;5006585;28;19926;-80
2022/07/28 04:52:07;;;;;;;;;;;;;;;15.48;54.32;101322.75;5000275;28;20300;-80
2022/07/28 04:54:32;;;;;;;;;;;;;;;15.51;53.97;101317.38;5006966;28;19925;-80
2022/07/28 04:56:58;;;;;;;;;;;;;;;15.59;54.29;101323.25;5000864;28;19922;-81
2022/07/28 04:59:23;;;;;;;;;;;;;;;15.48;54.79;101327.13;4985421;28;19957;-80
2022/07/28 05:01:48;;;;;;;;;;;;;;;15.41;54.98;101321.22;5003337;28;19918;-81
2022/07/28 05:04:14;;;;;;;;;;;;;;;15.51;54.87;101330.47;4991894;28;19928;-81
2022/07/28 05:06:40;;;;;;;;;;;;;;;15.49;54.89;101326.19;5001500;28;19918;-80
2022/07/28 05:09:05;;;;;;;;;;;;;;;15.51;54.56;101320.00;5004058;28;19921;-80
2022/07/28 05:11:31;;;;;;;;;;;;;;;15.54;54.27;101319.88;5006612;28;19987;-80
2022/07/28 05:13:56;;;;;;;;;;;;;;;15.62;54.57;101320.53;4984793;28;19926;-80
2022/07/28 05:16:21;;;;;;;;;;;;;;;15.68;54.30;101319.47;5000387;28;20655;-80
2022/07/28 05:18:47;;;;;;;;;;;;;;;15.63;53.61;101316.13;5003862;28;19921;-80
2022/07/28 05:21:12;;;;;;;;;;;;;;;15.64;54.45;101316.06;5008742;28;19925;-80
2022/07/28 05:23:37;;;;;;;;;;;;;;;15.68;54.28;101314.22;5004578;28;19922;-80
2022/07/28 05:26:03;;;;;;;;;;;;;;;15.69;54.02;101313.31;4983811;28;19925;-80
2022/07/28 05:28:31;;;;;;;;;;;;;;;15.76;53.59;101314.84;4991967;28;19971;-80
2022/07/28 05:30:57;;;;;;;;;;;;;;;15.76;53.95;101313.09;4992488;28;19917;-80
2022/07/28 05:33:25;;;;;;;;;;;;;;;15.79;54.61;101312.13;5002209;28;19925;-81
2022/07/28 05:35:52;;;;;;;;;;;;;;;15.77;54.46;101309.56;4969693;28;19932;-81
2022/07/28 05:38:17;;;;;;;;;;;;;;;15.86;54.50;101305.78;4997767;28;19925;-81
2022/07/28 05:40:43;;;;;;;;;;;;;;;15.81;54.58;101313.78;4997036;28;19925;-81
2022/07/28 05:43:08;;;;;;;;;;;;;;;15.85;54.22;101306.66;5002293;28;19961;-81
2022/07/28 05:45:34;;;;;;;;;;;;;;;15.91;54.04;101306.47;4983627;28;20319;-81
2022/07/28 05:47:59;;;;;;;;;;;;;;;15.87;54.51;101310.94;4987582;28;20063;-82
2022/07/28 05:50:24;;;;;;;;;;;;;;;15.80;55.05;101319.09;5005471;28;19928;-78
2022/07/28 05:52:50;;;;;;;;;;;;;;;15.84;54.57;101308.44;5004981;28;19929;-79
2022/07/28 05:55:16;;;;;;;;;;;;;;;15.86;54.30;101314.50;5005767;28;19921;-79
2022/07/28 05:57:42;;;;;;;;;;;;;;;15.90;54.34;101304.75;5002890;28;19922;-78
2022/07/28 06:00:08;;;;;;;;;;;;;;;15.99;55.07;101308.84;4998327;28;20135;-78
2022/07/28 06:02:34;;;;;;;;;;;;;;;16.01;54.95;101313.09;5005334;28;19922;-78
2022/07/28 06:04:59;;;;;;;;;;;;;;;15.95;54.47;101310.69;5000203;28;19949;-78
2022/07/28 06:07:25;;;;;;;;;;;;;;;16.07;54.23;101306.78;5002592;28;19948;-78
2022/07/28 06:09:50;;;;;;;;;;;;;;;16.00;53.77;101307.91;5006331;28;19949;-78
2022/07/28 06:12:15;;;;;;;;;;;;;;;16.10;53.39;101311.94;5003364;28;20858;-78
2022/07/28 06:14:41;;;;;;;;;;;;;;;16.03;53.58;101310.41;5000343;28;19968;-78
2022/07/28 06:17:06;;;;;;;;;;;;;;;16.01;53.31;101299.16;4984868;28;19926;-78
2022/07/28 06:19:31;;;;;;;;;;;;;;;16.20;53.42;101305.44;5004388;28;20148;-78
2022/07/28 06:21:56;;;;;;;;;;;;;;;16.18;53.13;101302.03;5000089;28;19918;-78
2022/07/28 06:24:22;;;;;;;;;;;;;;;16.18;52.82;101300.25;4999354;28;19929;-78
2022/07/28 06:26:47;;;;;;;;;;;;;;;16.11;53.18;101306.63;5001635;28;19992;-78
2022/07/28 06:29:12;;;;;;;;;;;;;;;16.12;53.18;101304.84;4988017;28;19921;-78
2022/07/28 06:31:38;;;;;;;;;;;;;;;16.15;53.12;101310.84;4989305;28;20541;-78
2022/07/28 06:34:03;;;;;;;;;;;;;;;16.18;53.17;101304.66;5003598;28;20388;-78
2022/07/28 06:36:29;;;;;;;;;;;;;;;16.16;53.06;101303.84;5004577;28;19960;-78
2022/07/28 06:38:54;;;;;;;;;;;;;;;16.14;53.55;101311.75;4984795;28;19928;-78
2022/07/28 06:41:19;;;;;;;;;;;;;;;16.17;52.94;101314.25;4993998;28;20392;-78
2022/07/28 06:43:45;;;;;;;;;;;;;;;16.10;53.47;101310.16;4986287;28;19933;-77
2022/07/28 06:46:10;;;;;;;;;;;;;;;16.16;53.00;101303.84;4999961;28;20363;-78
2022/07/28 06:48:37;;;;;;;;;;;;;;;16.19;52.32;101308.97;4983772;28;19926;-78
2022/07/28 06:51:02;;;;;;;;;;;;;;;16.20;53.05;101308.91;5000791;28;19926;-78
2022/07/28 06:53:28;;;;;;;;;;;;;;;16.29;53.66;101310.34;4987761;28;19928;-78
2022/07/28 06:55:53;;;;;;;;;;;;;;;16.26;53.77;101308.69;5002588;28;20388;-78
2022/07/28 06:58:18;;;;;;;;;;;;;;;16.30;53.42;101312.06;5009987;28;20653;-78
2022/07/28 07:00:44;;;;;;;;;;;;;;;16.30;53.33;101314.69;5003020;28;19925;-78
2022/07/28 07:03:09;;;;;;;;;;;;;;;16.29;52.81;101315.59;5000935;28;19985;-78
2022/07/28 07:05:34;;;;;;;;;;;;;;;16.33;52.68;101317.22;5006833;28;19933;-78
2022/07/28 07:08:00;;;;;;;;;;;;;;;16.37;52.76;101324.06;5005484;28;19929;-78
2022/07/28 07:10:25;;;;;;;;;;;;;;;16.36;52.33;101314.47;4996558;28;19917;-78
2022/07/28 07:12:51;;;;;;;;;;;;;;;16.41;52.57;101313.38;4999912;28;20007;-78
2022/07/28 07:15:16;;;;;;;;;;;;;;;16.46;52.82;101321.09;5005717;28;19929;-78
2022/07/28 07:17:41;;;;;;;;;;;;;;;16.50;52.18;101320.06;5005468;28;20182;-78
2022/07/28 07:20:09;;;;;;;;;;;;;;;16.50;52.18;101312.19;5004154;28;19921;-78
2022/07/28 07:22:40;;;;;;;;;;;;;;;16.54;51.76;101311.19;5000777;28;19917;-78
2022/07/28 07:25:06;;;;;;;;;;;;;;;16.62;52.31;101305.63;5000039;28;19929;-78
2022/07/28 07:27:31;;;;;;;;;;;;;;;16.59;52.96;101311.00;4971428;28;19932;-78
2022/07/28 07:29:57;;;;;;;;;;;;;;;16.56;52.61;101308.50;4999265;28;20016;-78
2022/07/28 07:32:22;;;;;;;;;;;;;;;16.65;52.00;101300.28;4999256;28;19965;-78
2022/07/28 07:34:55;;;;;;;;;;;;;;;16.61;52.49;101296.09;4987391;28;20111;-78
2022/07/28 07:37:20;;;;;;;;;;;;;;;16.61;51.84;101291.66;4999716;28;20427;-78
2022/07/28 07:39:46;;;;;;;;;;;;;;;16.64;51.88;101288.94;5008288;28;19918;-78
2022/07/28 07:42:11;;;;;;;;;;;;;;;16.67;51.57;101283.56;4989078;28;19928;-78
2022/07/28 07:44:36;;;;;;;;;;;;;;;16.68;52.12;101289.66;5006096;28;19925;-78
2022/07/28 07:47:02;;;;;;;;;;;;;;;16.76;51.83;101285.88;5003383;28;20358;-79
2022/07/28 07:49:28;;;;;;;;;;;;;;;16.83;52.15;101286.50;5003656;28;19992;-79
2022/07/28 07:51:53;;;;;;;;;;;;;;;16.84;52.37;101286.47;4937298;28;1860385;-79
2022/07/28 07:54:20;;;;;;;;;;;;;;;16.88;51.45;101281.91;5002936;28;19961;-79
2022/07/28 07:56:45;;;;;;;;;;;;;;;16.91;51.23;101276.53;4998951;28;19922;-79
2022/07/28 07:59:10;;;;;;;;;;;;;;;16.88;51.94;101280.16;5004351;28;20269;-79
2022/07/28 08:01:36;;;;;;;;;;;;;;;16.92;51.89;101281.75;5002505;28;20012;-79
2022/07/28 08:04:01;;;;;;;;;;;;;;;16.95;51.80;101281.63;4986922;28;19926;-78
2022/07/28 08:06:26;;;;;;;;;;;;;;;16.98;51.50;101276.25;5005125;28;20011;-78
2022/07/28 08:08:52;;;;;;;;;;;;;;;17.01;51.03;101270.91;5005329;28;20614;-78
2022/07/28 08:11:17;;;;;;;;;;;;;;;17.00;51.22;101265.69;5005843;28;19925;-79
2022/07/28 08:13:42;;;;;;;;;;;;;;;17.08;51.52;101268.88;4982574;28;19929;-78
2022/07/28 08:16:08;;;;;;;;;;;;;;;17.08;51.16;101265.41;4999197;28;19922;-78
2022/07/28 08:18:33;;;;;;;;;;;;;;;17.11;51.11;101266.16;5002715;28;20353;-78
2022/07/28 08:20:58;;;;;;;;;;;;;;;17.08;51.16;101264.47;4999855;28;19943;-78
2022/07/28 08:23:24;;;;;;;;;;;;;;;17.09;50.72;101257.44;5000555;28;19922;-78
2022/07/28 08:25:49;;;;;;;;;;;;;;;17.15;50.15;101257.22;5001579;28;20300;-78
2022/07/28 08:28:14;;;;;;;;;;;;;;;17.16;51.41;101255.44;5003072;28;20331;-79
2022/07/28 08:30:40;;;;;;;;;;;;;;;17.16;51.50;101256.31;4987624;28;19922;-78
2022/07/28 08:33:05;;;;;;;;;;;;;;;17.23;51.56;101251.66;5000776;28;19921;-78
2022/07/28 08:35:30;;;;;;;;;;;;;;;17.27;51.01;101254.09;5001365;28;19932;-79
2022/07/28 08:37:56;;;;;;;;;;;;;;;17.23;50.48;101247.28;5007049;28;19921;-79
2022/07/28 08:40:21;;;;;;;;;;;;;;;17.25;49.76;101237.56;4997967;28;19929;-79
2022/07/28 08:42:56;;;;;;;;;;;;;;;17.33;51.45;101247.72;5009983;28;19924;-79
2022/07/28 08:45:23;;;;;;;;;;;;;;;17.33;50.31;101245.97;4995545;28;20367;-79
2022/07/28 08:47:49;;;;;;;;;;;;;;;17.38;50.05;101245.78;5009248;28;20044;-79
2022/07/28 08:50:15;;;;;;;;;;;;;;;17.40;51.30;101230.81;5005032;28;20737;-79
2022/07/28 08:52:44;;;;;;;;;;;;;;;17.49;50.53;101233.91;4991180;28;20466;-79
2022/07/28 08:55:10;;;;;;;;;;;;;;;17.45;50.29;101232.31;5006568;28;20016;-79
2022/07/28 08:57:39;;;;;;;;;;;;;;;17.45;50.94;101242.81;5001300;28;19922;-79
2022/07/28 09:00:05;;;;;;;;;;;;;;;17.49;49.67;101238.31;5007330;28;20432;-78
2022/07/28 09:02:32;;;;;;;;;;;;;;;17.52;49.58;101235.56;4999417;28;20300;-78
2022/07/28 09:04:58;;;;;;;;;;;;;;;17.56;49.95;101239.78;4983227;28;19960;-78
2022/07/28 09:07:24;;;;;;;;;;;;;;;17.54;49.49;101237.19;5007007;28;20362;-78
2022/07/28 09:09:49;;;;;;;;;;;;;;;17.54;49.46;101238.94;5003895;28;19913;-78
2022/07/28 09:12:15;;;;;;;;;;;;;;;17.58;48.66;101235.28;4987920;28;20017;-78
2022/07/28 09:14:40;;;;;;;;;;;;;;;17.56;49.26;101234.50;4987123;28;19927;-78
2022/07/28 09:17:06;;;;;;;;;;;;;;;17.57;48.54;101230.94;5003030;28;19936;-79
2022/07/28 09:19:31;;;;;;;;;;;;;;;17.60;48.67;101226.44;5004728;28;20391;-78
2022/07/28 09:21:57;;;;;;;;;;;;;;;17.65;49.31;101222.78;4990647;28;20445;-79
2022/07/28 09:24:36;;;;;;;;;;;;;;;17.67;49.23;101220.94;5003808;28;19937;-78
2022/07/28 09:27:09;;;;;;;;;;;;;;;17.67;49.40;101216.53;4985689;28;19945;-78
2022/07/28 09:29:36;;;;;;;;;;;;;;;17.69;49.63;101203.31;5006171;28;19921;-79
2022/07/28 09:32:02;;;;;;;;;;;;;;;17.68;51.12;101212.97;5006281;28;20356;-78
2022/07/28 09:34:37;;;;;;;;;;;;;;;17.73;49.83;101207.53;5009596;28;19917;-79
2022/07/28 09:37:02;;;;;;;;;;;;;;;17.76;49.52;101216.16;5006444;28;19960;-79
2022/07/28 09:39:31;;;;;;;;;;;;;;;17.75;48.97;101214.44;5008773;28;19960;-78
2022/07/28 09:41:57;;;;;;;;;;;;;;;17.76;49.75;101204.78;5004738;28;19936;-78
2022/07/28 09:44:23;;;;;;;;;;;;;;;17.80;49.60;101209.81;5008057;28;19930;-78
2022/07/28 09:46:49;;;;;;;;;;;;;;;17.79;50.14;101212.53;5007726;28;20435;-78
2022/07/28 09:49:15;;;;;;;;;;;;;;;17.81;49.84;101203.66;5009060;28;19922;-78
2022/07/28 09:51:40;;;;;;;;;;;;;;;17.83;49.42;101195.72;4988583;28;20052;-78
2022/07/28 09:54:12;;;;;;;;;;;;;;;17.85;50.70;101199.13;5009606;28;19921;-78
2022/07/28 09:56:38;;;;;;;;;;;;;;;17.85;49.48;101193.88;5005867;28;19929;-78
2022/07/28 09:59:04;;;;;;;;;;;;;;;17.85;49.38;101184.22;5005757;28;20431;-79
2022/07/28 10:01:29;;;;;;;;;;;;;;;17.89;49.22;101185.75;5006522;28;19928;-79
2022/07/28 10:03:56;;;;;;;;;;;;;;;17.95;49.48;101189.88;5006231;28;19928;-79
2022/07/28 10:06:25;;;;;;;;;;;;;;;17.96;49.28;101186.34;4997402;28;19921;-79
2022/07/28 10:08:50;;;;;;;;;;;;;;;17.96;48.34;101184.56;5006677;28;19913;-79
2022/07/28 10:11:17;;;;;;;;;;;;;;;18.02;48.09;101180.81;5006967;28;19927;-79
2022/07/28 10:13:58;;;;;;;;;;;;;;;17.99;48.43;101176.56;4993482;28;20419;-79
2022/07/28 10:16:28;;;;;;;;;;;;;;;17.99;48.41;101178.31;4991126;28;19922;-79
2022/07/28 10:18:54;;;;;;;;;;;;;;;18.07;47.94;101166.53;5003007;28;19930;-79
2022/07/28 10:21:22;;;;;;;;;;;;;;;18.06;47.80;101164.00;4988294;28;20013;-79
2022/07/28 10:24:03;;;;;;;;;;;;;;;18.12;47.34;101161.91;4987877;28;19918;-79
2022/07/28 10:26:34;;;;;;;;;;;;;;;18.16;46.54;101163.47;5001082;28;19925;-79
2022/07/28 10:29:06;;;;;;;;;;;;;;;18.11;46.09;101159.38;5004846;28;19930;-79
2022/07/28 10:31:33;;;;;;;;;;;;;;;18.08;46.77;101154.25;4999690;28;20332;-78
2022/07/28 10:33:59;;;;;;;;;;;;;;;18.12;46.29;101155.81;5006047;28;19922;-78
2022/07/28 10:36:25;;;;;;;;;;;;;;;18.07;47.11;101152.53;4987940;28;19921;-78
2022/07/28 10:38:59;;;;;;;;;;;;;;;18.12;45.48;101145.31;5009199;28;19920;-78
2022/07/28 10:41:27;;;;;;;;;;;;;;;18.18;45.33;101148.47;4998759;28;19921;-79
2022/07/28 10:44:02;;;;;;;;;;;;;;;18.18;48.69;101152.06;4992106;28;19930;-79
2022/07/28 10:46:28;;;;;;;;;;;;;;;18.25;46.72;101151.69;5001539;28;19928;-79
2022/07/28 10:48:54;;;;;;;;;;;;;;;18.41;45.11;101136.91;5002476;28;19929;-79
2022/07/28 10:51:20;;;;;;;;;;;;;;;18.42;44.60;101143.00;5004108;28;20575;-79
2022/07/28 10:53:50;;;;;;;;;;;;;;;18.46;45.05;101142.81;5001059;28;20492;-77
2022/07/28 10:56:18;;;;;;;;;;;;;;;18.44;44.41;101144.66;5004579;28;19921;-79
2022/07/28 10:58:56;;;;;;;;;;;;;;;18.34;45.10;101146.00;5005328;28;19929;-79
2022/07/28 11:01:38;;;;;;;;;;;;;;;18.33;44.61;101136.41;5008098;28;20340;-78
2022/07/28 11:04:05;;;;;;;;;;;;;;;18.50;44.44;101128.59;5008229;28;19926;-78
2022/07/28 11:06:30;;;;;;;;;;;;;;;18.66;42.72;101133.94;5006329;28;19930;-78
2022/07/28 11:09:18;;;;;;;;;;;;;;;18.62;43.75;101132.41;5002034;28;19924;-79
2022/07/28 11:11:53;;;;;;;;;;;;;;;18.60;43.35;101131.66;5012216;28;19965;-79
2022/07/28 11:14:22;;;;;;;;;;;;;;;18.50;43.74;101125.97;4998467;28;19932;-79
2022/07/28 11:16:48;;;;;;;;;;;;;;;18.57;43.71;101127.38;5001450;28;19956;-79
2022/07/28 11:19:15;;;;;;;;;;;;;;;18.47;44.38;101130.53;5004887;28;19921;-79
2022/07/28 11:22:01;;;;;;;;;;;;;;;18.72;42.75;101115.22;5003860;28;19925;-78
2022/07/28 11:24:46;;;;;;;;;;;;;;;18.81;42.89;101113.97;4992511;28;19929;-79
2022/07/28 11:27:11;;;;;;;;;;;;;;;18.70;43.37;101112.69;4985348;28;19964;-78
2022/07/28 11:29:46;;;;;;;;;;;;;;;18.47;54.17;101118.22;5002501;28;19929;-78
2022/07/28 11:32:11;;;;;;;;;;;;;;;18.41;54.92;101112.38;4988166;28;20013;-78
2022/07/28 11:35:06;;;;;;;;;;;;;;;18.53;46.93;101102.16;5006812;28;20004;-78
2022/07/28 11:37:52;;;;;;;;;;;;;;;18.52;47.68;101107.47;4996794;28;20008;-78
2022/07/28 11:40:43;;;;;;;;;;;;;;;18.79;44.14;101108.75;5007827;28;19923;-78
2022/07/28 11:43:25;;;;;;;;;;;;;;;18.72;43.81;101099.44;5006555;28;19946;-78
2022/07/28 11:45:59;;;;;;;;;;;;;;;18.79;43.11;101094.72;4988098;28;19926;-78
2022/07/28 11:48:26;;;;;;;;;;;;;;;18.88;42.92;101094.28;5003063;28;19917;-79
2022/07/28 11:51:03;;;;;;;;;;;;;;;18.72;45.01;101096.81;5002011;28;20040;-78
2022/07/28 11:53:47;;;;;;;;;;;;;;;18.72;44.27;101091.53;4993010;28;20388;-78
2022/07/28 11:56:14;;;;;;;;;;;;;;;18.82;50.13;101092.81;4983956;28;19932;-78
2022/07/28 11:58:40;;;;;;;;;;;;;;;19.02;43.65;101084.75;5006278;28;20609;-78
2022/07/28 12:01:13;;;;;;;;;;;;;;;19.05;42.95;101095.13;5007821;28;20307;-78
2022/07/28 12:03:40;;;;;;;;;;;;;;;18.96;42.93;101086.84;5004714;28;20025;-78
2022/07/28 12:06:06;;;;;;;;;;;;;;;18.80;47.28;101088.56;4987007;28;19925;-78
2022/07/28 12:08:50;;;;;;;;;;;;;;;18.88;43.88;101084.59;4995236;28;19937;-78
2022/07/28 12:11:16;;;;;;;;;;;;;;;19.05;42.96;101083.75;5005443;28;19922;-78
2022/07/28 12:13:42;;;;;;;;;;;;;;;19.01;42.86;101085.69;4999694;28;20012;-78
2022/07/28 12:16:07;;;;;;;;;;;;;;;19.08;43.83;101084.44;5003209;28;19922;-78
2022/07/28 12:18:32;;;;;;;;;;;;;;;19.33;42.12;101075.31;5003500;28;19922;-78
2022/07/28 12:20:58;;;;;;;;;;;;;;;19.08;44.64;101073.06;5008126;28;19922;-78
2022/07/28 12:23:36;;;;;;;;;;;;;;;19.05;43.12;101074.06;5009041;28;19921;-78
2022/07/28 12:26:03;;;;;;;;;;;;;;;19.03;43.53;101073.31;4982253;28;19980;-78
2022/07/28 12:28:31;;;;;;;;;;;;;;;19.05;43.41;101063.53;5004493;28;19922;-78
2022/07/28 12:31:08;;;;;;;;;;;;;;;19.01;43.88;101059.38;4999835;28;20008;-78
2022/07/28 12:33:33;;;;;;;;;;;;;;;19.00;44.58;101059.44;4988817;28;19921;-78
2022/07/28 12:35:59;;;;;;;;;;;;;;;19.38;42.19;101054.84;5001375;28;19929;-78
2022/07/28 12:38:25;;;;;;;;;;;;;;;19.36;41.48;101057.56;4989849;28;20012;-78